Agios Georgios I — SX9857 — position and weather

sailwx.info

Track history (hours):
 
Tides and Currents Weather Stations Pressure Air Temp Water Temp Dewpoint Dewpoint Depression Visibility Wind Speed Wind Dir Waves Ship Positions

Agios Georgios I

Last reported at 2014-Dec-22 12:33 UTC. Time now 2014-Dec-22 12:49 UTC.
Position N 37°23' E 025°02'.

Length 59 m; draft 5 m.

Type: Ship (hazmat cat B). MMSI: 239912000.

Date/timePositionNaut miles runAvg speedWind from/ knotsBaromVisibWave heightAir tempDewpointWater temp
2014-Dec-22 12:33N 37°23' E 025°02'6 5.6
2014-Dec-22 11:32N 37°26' E 024°56'0 0.0
2014-Dec-22 10:33N 37°26' E 024°56'0 0.0
2014-Dec-22 09:18N 37°26' E 024°56'0 0.0
2014-Dec-22 08:33N 37°26' E 024°56'0 0.0
2014-Dec-22 07:32N 37°26' E 024°56'0 0.0
2014-Dec-22 06:33N 37°26' E 024°56'0 0.0
2014-Dec-22 05:33N 37°26' E 024°56'0 0.0
2014-Dec-22 04:32N 37°26' E 024°56'0 0.0
2014-Dec-22 03:32N 37°26' E 024°56'0 0.0
2014-Dec-22 02:32N 37°26' E 024°56'0 0.0
2014-Dec-22 01:33N 37°26' E 024°56'0 0.0
2014-Dec-22 00:26N 37°26' E 024°56'0 0.0
2014-Dec-21 23:33N 37°26' E 024°56'0 0.0
2014-Dec-21 22:32N 37°26' E 024°56'0 0.0
2014-Dec-21 21:33N 37°26' E 024°56'0 0.0
2014-Dec-21 20:33N 37°26' E 024°56'0 0.0
2014-Dec-21 19:33N 37°26' E 024°56'0 0.0
2014-Dec-21 18:32N 37°26' E 024°56'0 0.0
2014-Dec-21 17:33N 37°26' E 024°56'2 2.5
2014-Dec-21 16:33N 37°28' E 024°58'9 9.1
2014-Dec-21 15:32N 37°37' E 024°57'8 8.1
2014-Dec-21 14:32N 37°43' E 025°04'9 9.1
2014-Dec-21 13:33N 37°49' E 025°13'11 9.3
2014-Dec-21 12:22N 37°56' E 025°23'  
2014-Dec-18 19:24N 37°44' E 025°33'17 9.0
2014-Dec-18 17:33N 37°33' E 025°17'6 6.4
2014-Dec-18 16:33N 37°32' E 025°09'0 0.0
2014-Dec-18 15:33N 37°32' E 025°09'0 0.0
2014-Dec-18 14:33N 37°32' E 025°09'6 6.4
2014-Dec-18 13:33N 37°29' E 025°03'6 4.6
2014-Dec-18 12:19N 37°26' E 024°56'0 0.0
2014-Dec-18 11:31N 37°26' E 024°56'0 0.0
2014-Dec-18 10:28N 37°26' E 024°56'0 0.0
2014-Dec-18 09:20N 37°26' E 024°56'0 0.0
2014-Dec-18 08:32N 37°26' E 024°56'0 0.0
2014-Dec-18 07:33N 37°26' E 024°56'0 0.0
2014-Dec-18 06:32N 37°26' E 024°56'0 0.0
2014-Dec-18 05:33N 37°26' E 024°56'0 0.0
2014-Dec-18 04:33N 37°26' E 024°56'0 0.0
2014-Dec-18 03:32N 37°26' E 024°56'0 0.0
2014-Dec-18 02:33N 37°26' E 024°56'0 0.0
2014-Dec-18 01:33N 37°26' E 024°56'0 0.0
2014-Dec-18 00:30N 37°26' E 024°56'0 0.0
2014-Dec-17 23:32N 37°26' E 024°56'0 0.1
2014-Dec-17 22:33N 37°26' E 024°56'7 7.2
2014-Dec-17 21:33N 37°20' E 025°01'9 8.7
2014-Dec-17 20:33N 37°12' E 025°05'7 3.3
2014-Dec-17 18:19N 37°05' E 025°09'0 0.1
2014-Dec-17 17:17N 37°05' E 025°09'0 0.0
2014-Dec-17 16:29N 37°05' E 025°09'0 0.0
2014-Dec-17 15:32N 37°05' E 025°09'0 0.0
2014-Dec-17 14:30N 37°05' E 025°09'0 0.0
2014-Dec-17 13:27N 37°05' E 025°09'0 0.0
2014-Dec-17 12:28N 37°05' E 025°09'0 0.0
2014-Dec-17 11:33N 37°05' E 025°09'0 0.0
2014-Dec-17 10:33N 37°05' E 025°09'7 6.7
2014-Dec-17 09:33N 37°10' E 025°03'7 7.5
2014-Dec-17 08:33N 37°14' E 024°55'56 7.6
2014-Dec-17 01:06N 37°37' E 023°50'5 8.1
2014-Dec-17 00:31N 37°39' E 023°45'7 7.5
2014-Dec-16 23:33N 37°45' E 023°39'8 7.9
2014-Dec-16 22:33N 37°52' E 023°36'5 5.3
2014-Dec-16 21:33N 37°57' E 023°35'0 0.0
2014-Dec-16 20:33N 37°57' E 023°35'0 0.0
2014-Dec-16 19:32N 37°57' E 023°35'0 0.0
2014-Dec-16 18:27N 37°57' E 023°35'0 0.0
2014-Dec-16 17:32N 37°57' E 023°35'0 0.0
2014-Dec-16 16:33N 37°57' E 023°35'0 0.0
2014-Dec-16 15:30N 37°57' E 023°35'0 0.0
2014-Dec-16 14:28N 37°57' E 023°35'0 0.0
2014-Dec-16 13:33N 37°57' E 023°35'0 0.0
2014-Dec-16 12:33N 37°57' E 023°35'0 0.0
2014-Dec-16 11:33N 37°57' E 023°35'0 0.0
2014-Dec-16 10:33N 37°57' E 023°35'0 0.0
2014-Dec-16 09:33N 37°57' E 023°35'0 0.0
2014-Dec-16 08:33N 37°57' E 023°35'0 0.0
2014-Dec-16 07:33N 37°57' E 023°35'1 1.0
2014-Dec-16 06:33N 37°56' E 023°35'8 8.0
2014-Dec-16 05:33N 37°49' E 023°40'8 7.7
2014-Dec-16 04:32N 37°42' E 023°44'7 7.4
2014-Dec-16 03:32N 37°38' E 023°52'18 8.4
2014-Dec-16 01:22N 37°32' E 024°13'8 7.6
2014-Dec-16 00:16N 37°30' E 024°23'8 8.2
2014-Dec-15 23:15N 37°31' E 024°34'5 8.0
2014-Dec-15 22:33N 37°32' E 024°41'8 8.1
2014-Dec-15 21:33N 37°33' E 024°51'8 8.4
2014-Dec-15 20:33N 37°33' E 025°01'6 6.3
2014-Dec-15 19:33N 37°32' E 025°09'0 0.0
2014-Dec-15 18:33N 37°32' E 025°09'0 0.0
2014-Dec-15 17:33N 37°32' E 025°09'0 0.0
2014-Dec-15 16:33N 37°32' E 025°09'0 0.0
2014-Dec-15 15:33N 37°32' E 025°09'0 0.0
2014-Dec-15 14:33N 37°32' E 025°09'0 0.0
2014-Dec-15 13:33N 37°32' E 025°09'0 0.1
2014-Dec-15 12:33N 37°32' E 025°09'9 8.7
2014-Dec-15 11:33N 37°24' E 025°11'9 9.2
2014-Dec-15 10:33N 37°15' E 025°16'9 9.3
2014-Dec-15 09:33N 37°07' E 025°21'1 1.0
2014-Dec-15 08:33N 37°06' E 025°22'0 0.4
2014-Dec-15 07:33N 37°06' E 025°22'0 0.2
2014-Dec-15 06:33N 37°06' E 025°22'0 0.2
2014-Dec-15 05:33N 37°06' E 025°22'0 0.0
2014-Dec-15 04:33N 37°06' E 025°22'0 0.0
2014-Dec-15 03:33N 37°06' E 025°22'0 0.0
2014-Dec-15 02:33N 37°06' E 025°22'0 0.0
2014-Dec-15 01:33N 37°06' E 025°22'0 0.0
2014-Dec-15 00:33N 37°06' E 025°22'0 0.0
2014-Dec-14 23:33N 37°06' E 025°22'0 0.0
2014-Dec-14 22:33N 37°06' E 025°22'1 1.0
2014-Dec-14 21:33N 37°06' E 025°21'2 2.2
2014-Dec-14 20:33N 37°08' E 025°21'5 4.6
2014-Dec-14 19:33N 37°12' E 025°19'5 5.3
2014-Dec-14 18:33N 37°18' E 025°18'8 8.1
2014-Dec-14 17:33N 37°26' E 025°17'3 2.8
2014-Dec-14 16:33N 37°28' E 025°20'0 0.0
2014-Dec-14 15:33N 37°28' E 025°20'0 0.0
2014-Dec-14 14:33N 37°28' E 025°20'0 0.0
2014-Dec-14 13:33N 37°28' E 025°20'4 3.9
2014-Dec-14 12:33N 37°27' E 025°15'8 8.4
2014-Dec-14 11:33N 37°27' E 025°04'6 6.2
2014-Dec-14 10:33N 37°26' E 024°56'0 0.0
2014-Dec-14 09:32N 37°26' E 024°56'0 0.0
2014-Dec-14 08:32N 37°26' E 024°56'0 0.0
2014-Dec-14 07:33N 37°26' E 024°56'0 0.0
2014-Dec-14 06:33N 37°26' E 024°56'0 0.0
2014-Dec-14 05:32N 37°26' E 024°56'0 0.0
2014-Dec-14 04:32N 37°26' E 024°56'0 0.0
2014-Dec-14 03:33N 37°26' E 024°56'0 0.0
2014-Dec-14 02:24N 37°26' E 024°56'0 0.0
2014-Dec-14 01:28N 37°26' E 024°56'0 0.0
2014-Dec-14 00:32N 37°26' E 024°56'0 0.0
2014-Dec-13 23:33N 37°26' E 024°56'0 0.0
2014-Dec-13 22:32N 37°26' E 024°56'0 0.0
2014-Dec-13 21:32N 37°26' E 024°56'0 0.0
2014-Dec-13 20:21N 37°26' E 024°56'0 0.0
2014-Dec-13 19:32N 37°26' E 024°56'0 0.0
2014-Dec-13 18:33N 37°26' E 024°56'0 0.0
2014-Dec-13 17:33N 37°26' E 024°56'0 0.0
2014-Dec-13 16:31N 37°26' E 024°56'0 0.0
2014-Dec-13 15:32N 37°26' E 024°56'0 0.0
2014-Dec-13 14:33N 37°26' E 024°56'0 0.0
2014-Dec-13 13:32N 37°26' E 024°56'4 3.8
2014-Dec-13 12:32N 37°30' E 024°57'51 8.4
2014-Dec-13 06:31N 38°18' E 024°40'  
Track history (hours):
 
Tides and Currents Weather Stations Pressure Air Temp Water Temp Dewpoint Dewpoint Depression Visibility Wind Speed Wind Dir Waves Ship Positions

Agios Georgios I

Last reported at 2014-Dec-22 12:33 UTC. Time now 2014-Dec-22 12:49 UTC.
Position N 37°23' E 025°02'.

Length 59 m; draft 5 m.

Type: Ship (hazmat cat B). MMSI: 239912000.

Date/timePositionNaut miles runAvg speedWind from/ knotsBaromVisibWave heightAir tempDewpointWater temp
2014-Dec-22 12:33N 37°23' E 025°02'6 5.6
2014-Dec-22 11:32N 37°26' E 024°56'0 0.0
2014-Dec-22 10:33N 37°26' E 024°56'0 0.0
2014-Dec-22 09:18N 37°26' E 024°56'0 0.0
2014-Dec-22 08:33N 37°26' E 024°56'0 0.0
2014-Dec-22 07:32N 37°26' E 024°56'0 0.0
2014-Dec-22 06:33N 37°26' E 024°56'0 0.0
2014-Dec-22 05:33N 37°26' E 024°56'0 0.0
2014-Dec-22 04:32N 37°26' E 024°56'0 0.0
2014-Dec-22 03:32N 37°26' E 024°56'0 0.0
2014-Dec-22 02:32N 37°26' E 024°56'0 0.0
2014-Dec-22 01:33N 37°26' E 024°56'0 0.0
2014-Dec-22 00:26N 37°26' E 024°56'0 0.0
2014-Dec-21 23:33N 37°26' E 024°56'0 0.0
2014-Dec-21 22:32N 37°26' E 024°56'0 0.0
2014-Dec-21 21:33N 37°26' E 024°56'0 0.0
2014-Dec-21 20:33N 37°26' E 024°56'0 0.0
2014-Dec-21 19:33N 37°26' E 024°56'0 0.0
2014-Dec-21 18:32N 37°26' E 024°56'0 0.0
2014-Dec-21 17:33N 37°26' E 024°56'2 2.5
2014-Dec-21 16:33N 37°28' E 024°58'9 9.1
2014-Dec-21 15:32N 37°37' E 024°57'8 8.1
2014-Dec-21 14:32N 37°43' E 025°04'9 9.1
2014-Dec-21 13:33N 37°49' E 025°13'11 9.3
2014-Dec-21 12:22N 37°56' E 025°23'  
2014-Dec-18 19:24N 37°44' E 025°33'17 9.0
2014-Dec-18 17:33N 37°33' E 025°17'6 6.4
2014-Dec-18 16:33N 37°32' E 025°09'0 0.0
2014-Dec-18 15:33N 37°32' E 025°09'0 0.0
2014-Dec-18 14:33N 37°32' E 025°09'6 6.4
2014-Dec-18 13:33N 37°29' E 025°03'6 4.6
2014-Dec-18 12:19N 37°26' E 024°56'0 0.0
2014-Dec-18 11:31N 37°26' E 024°56'0 0.0
2014-Dec-18 10:28N 37°26' E 024°56'0 0.0
2014-Dec-18 09:20N 37°26' E 024°56'0 0.0
2014-Dec-18 08:32N 37°26' E 024°56'0 0.0
2014-Dec-18 07:33N 37°26' E 024°56'0 0.0
2014-Dec-18 06:32N 37°26' E 024°56'0 0.0
2014-Dec-18 05:33N 37°26' E 024°56'0 0.0
2014-Dec-18 04:33N 37°26' E 024°56'0 0.0
2014-Dec-18 03:32N 37°26' E 024°56'0 0.0
2014-Dec-18 02:33N 37°26' E 024°56'0 0.0
2014-Dec-18 01:33N 37°26' E 024°56'0 0.0
2014-Dec-18 00:30N 37°26' E 024°56'0 0.0
2014-Dec-17 23:32N 37°26' E 024°56'0 0.1
2014-Dec-17 22:33N 37°26' E 024°56'7 7.2
2014-Dec-17 21:33N 37°20' E 025°01'9 8.7
2014-Dec-17 20:33N 37°12' E 025°05'7 3.3
2014-Dec-17 18:19N 37°05' E 025°09'0 0.1
2014-Dec-17 17:17N 37°05' E 025°09'0 0.0
2014-Dec-17 16:29N 37°05' E 025°09'0 0.0
2014-Dec-17 15:32N 37°05' E 025°09'0 0.0
2014-Dec-17 14:30N 37°05' E 025°09'0 0.0
2014-Dec-17 13:27N 37°05' E 025°09'0 0.0
2014-Dec-17 12:28N 37°05' E 025°09'0 0.0
2014-Dec-17 11:33N 37°05' E 025°09'0 0.0
2014-Dec-17 10:33N 37°05' E 025°09'7 6.7
2014-Dec-17 09:33N 37°10' E 025°03'7 7.5
2014-Dec-17 08:33N 37°14' E 024°55'56 7.6
2014-Dec-17 01:06N 37°37' E 023°50'5 8.1
2014-Dec-17 00:31N 37°39' E 023°45'7 7.5
2014-Dec-16 23:33N 37°45' E 023°39'8 7.9
2014-Dec-16 22:33N 37°52' E 023°36'5 5.3
2014-Dec-16 21:33N 37°57' E 023°35'0 0.0
2014-Dec-16 20:33N 37°57' E 023°35'0 0.0
2014-Dec-16 19:32N 37°57' E 023°35'0 0.0
2014-Dec-16 18:27N 37°57' E 023°35'0 0.0
2014-Dec-16 17:32N 37°57' E 023°35'0 0.0
2014-Dec-16 16:33N 37°57' E 023°35'0 0.0
2014-Dec-16 15:30N 37°57' E 023°35'0 0.0
2014-Dec-16 14:28N 37°57' E 023°35'0 0.0
2014-Dec-16 13:33N 37°57' E 023°35'0 0.0
2014-Dec-16 12:33N 37°57' E 023°35'0 0.0
2014-Dec-16 11:33N 37°57' E 023°35'0 0.0
2014-Dec-16 10:33N 37°57' E 023°35'0 0.0
2014-Dec-16 09:33N 37°57' E 023°35'0 0.0
2014-Dec-16 08:33N 37°57' E 023°35'0 0.0
2014-Dec-16 07:33N 37°57' E 023°35'1 1.0
2014-Dec-16 06:33N 37°56' E 023°35'8 8.0
2014-Dec-16 05:33N 37°49' E 023°40'8 7.7
2014-Dec-16 04:32N 37°42' E 023°44'7 7.4
2014-Dec-16 03:32N 37°38' E 023°52'18 8.4
2014-Dec-16 01:22N 37°32' E 024°13'8 7.6
2014-Dec-16 00:16N 37°30' E 024°23'8 8.2
2014-Dec-15 23:15N 37°31' E 024°34'5 8.0
2014-Dec-15 22:33N 37°32' E 024°41'8 8.1
2014-Dec-15 21:33N 37°33' E 024°51'8 8.4
2014-Dec-15 20:33N 37°33' E 025°01'6 6.3
2014-Dec-15 19:33N 37°32' E 025°09'0 0.0
2014-Dec-15 18:33N 37°32' E 025°09'0 0.0
2014-Dec-15 17:33N 37°32' E 025°09'0 0.0
2014-Dec-15 16:33N 37°32' E 025°09'0 0.0
2014-Dec-15 15:33N 37°32' E 025°09'0 0.0
2014-Dec-15 14:33N 37°32' E 025°09'0 0.0
2014-Dec-15 13:33N 37°32' E 025°09'0 0.1
2014-Dec-15 12:33N 37°32' E 025°09'9 8.7
2014-Dec-15 11:33N 37°24' E 025°11'9 9.2
2014-Dec-15 10:33N 37°15' E 025°16'9 9.3
2014-Dec-15 09:33N 37°07' E 025°21'1 1.0
2014-Dec-15 08:33N 37°06' E 025°22'0 0.4
2014-Dec-15 07:33N 37°06' E 025°22'0 0.2
2014-Dec-15 06:33N 37°06' E 025°22'0 0.2
2014-Dec-15 05:33N 37°06' E 025°22'0 0.0
2014-Dec-15 04:33N 37°06' E 025°22'0 0.0
2014-Dec-15 03:33N 37°06' E 025°22'0 0.0
2014-Dec-15 02:33N 37°06' E 025°22'0 0.0
2014-Dec-15 01:33N 37°06' E 025°22'0 0.0
2014-Dec-15 00:33N 37°06' E 025°22'0 0.0
2014-Dec-14 23:33N 37°06' E 025°22'0 0.0
2014-Dec-14 22:33N 37°06' E 025°22'1 1.0
2014-Dec-14 21:33N 37°06' E 025°21'2 2.2
2014-Dec-14 20:33N 37°08' E 025°21'5 4.6
2014-Dec-14 19:33N 37°12' E 025°19'5 5.3
2014-Dec-14 18:33N 37°18' E 025°18'8 8.1
2014-Dec-14 17:33N 37°26' E 025°17'3 2.8
2014-Dec-14 16:33N 37°28' E 025°20'0 0.0
2014-Dec-14 15:33N 37°28' E 025°20'0 0.0
2014-Dec-14 14:33N 37°28' E 025°20'0 0.0
2014-Dec-14 13:33N 37°28' E 025°20'4 3.9
2014-Dec-14 12:33N 37°27' E 025°15'8 8.4
2014-Dec-14 11:33N 37°27' E 025°04'6 6.2
2014-Dec-14 10:33N 37°26' E 024°56'0 0.0
2014-Dec-14 09:32N 37°26' E 024°56'0 0.0
2014-Dec-14 08:32N 37°26' E 024°56'0 0.0
2014-Dec-14 07:33N 37°26' E 024°56'0 0.0
2014-Dec-14 06:33N 37°26' E 024°56'0 0.0
2014-Dec-14 05:32N 37°26' E 024°56'0 0.0
2014-Dec-14 04:32N 37°26' E 024°56'0 0.0
2014-Dec-14 03:33N 37°26' E 024°56'0 0.0
2014-Dec-14 02:24N 37°26' E 024°56'0 0.0
2014-Dec-14 01:28N 37°26' E 024°56'0 0.0
2014-Dec-14 00:32N 37°26' E 024°56'0 0.0
2014-Dec-13 23:33N 37°26' E 024°56'0 0.0
2014-Dec-13 22:32N 37°26' E 024°56'0 0.0
2014-Dec-13 21:32N 37°26' E 024°56'0 0.0
2014-Dec-13 20:21N 37°26' E 024°56'0 0.0
2014-Dec-13 19:32N 37°26' E 024°56'0 0.0
2014-Dec-13 18:33N 37°26' E 024°56'0 0.0
2014-Dec-13 17:33N 37°26' E 024°56'0 0.0
2014-Dec-13 16:31N 37°26' E 024°56'0 0.0
2014-Dec-13 15:32N 37°26' E 024°56'0 0.0
2014-Dec-13 14:33N 37°26' E 024°56'0 0.0
2014-Dec-13 13:32N 37°26' E 024°56'4 3.8
2014-Dec-13 12:32N 37°30' E 024°57'51 8.4
2014-Dec-13 06:31N 38°18' E 024°40'  

Dump ship's entire track history